sensor_id;sensor_type;location;lat;lon;timestamp;temperature;humidity
41953;DHT22;63613;28.200;112.870;2023-04-25T00:01:21;17.20;68.90
41953;DHT22;63613;28.200;112.870;2023-04-25T00:03:48;17.20;68.90
41953;DHT22;63613;28.200;112.870;2023-04-25T00:06:15;17.20;68.90
41953;DHT22;63613;28.200;112.870;2023-04-25T00:08:44;17.30;68.80
41953;DHT22;63613;28.200;112.870;2023-04-25T00:11:10;17.30;68.70
41953;DHT22;63613;28.200;112.870;2023-04-25T00:13:37;17.30;68.70
41953;DHT22;63613;28.200;112.870;2023-04-25T00:16:25;17.30;68.70
41953;DHT22;63613;28.200;112.870;2023-04-25T00:18:53;17.20;68.70
41953;DHT22;63613;28.200;112.870;2023-04-25T00:21:20;17.30;68.60
41953;DHT22;63613;28.200;112.870;2023-04-25T00:24:08;17.20;68.70
41953;DHT22;63613;28.200;112.870;2023-04-25T00:26:35;17.20;68.80
41953;DHT22;63613;28.200;112.870;2023-04-25T00:29:02;17.20;68.80
41953;DHT22;63613;28.200;112.870;2023-04-25T00:31:29;17.20;68.80
41953;DHT22;63613;28.200;112.870;2023-04-25T00:33:56;17.30;68.70
41953;DHT22;63613;28.200;112.870;2023-04-25T00:36:23;17.20;68.80
41953;DHT22;63613;28.200;112.870;2023-04-25T00:38:50;17.20;68.80
41953;DHT22;63613;28.200;112.870;2023-04-25T00:41:17;17.30;68.80
41953;DHT22;63613;28.200;112.870;2023-04-25T00:43:45;17.20;68.70
41953;DHT22;63613;28.200;112.870;2023-04-25T00:46:12;17.20;68.70
41953;DHT22;63613;28.200;112.870;2023-04-25T00:48:39;17.20;68.70
41953;DHT22;63613;28.200;112.870;2023-04-25T00:51:06;17.20;68.70
41953;DHT22;63613;28.200;112.870;2023-04-25T00:53:33;17.20;68.70
41953;DHT22;63613;28.200;112.870;2023-04-25T00:56:00;17.20;68.80
41953;DHT22;63613;28.200;112.870;2023-04-25T00:58:30;17.20;68.80
41953;DHT22;63613;28.200;112.870;2023-04-25T01:00:57;17.20;68.70
41953;DHT22;63613;28.200;112.870;2023-04-25T01:03:25;17.20;68.70
41953;DHT22;63613;28.200;112.870;2023-04-25T01:05:54;17.20;68.70
41953;DHT22;63613;28.200;112.870;2023-04-25T01:08:24;17.20;68.70
41953;DHT22;63613;28.200;112.870;2023-04-25T01:10:53;17.20;68.70
41953;DHT22;63613;28.200;112.870;2023-04-25T01:13:20;17.20;68.70
41953;DHT22;63613;28.200;112.870;2023-04-25T01:15:48;17.20;68.70
41953;DHT22;63613;28.200;112.870;2023-04-25T01:18:15;17.10;68.70
41953;DHT22;63613;28.200;112.870;2023-04-25T01:20:42;17.10;68.70
41953;DHT22;63613;28.200;112.870;2023-04-25T01:23:10;17.10;68.70
41953;DHT22;63613;28.200;112.870;2023-04-25T01:25:37;17.20;68.70
41953;DHT22;63613;28.200;112.870;2023-04-25T01:28:04;17.20;68.70
41953;DHT22;63613;28.200;112.870;2023-04-25T01:30:32;17.20;68.70
41953;DHT22;63613;28.200;112.870;2023-04-25T01:32:59;17.20;68.60
41953;DHT22;63613;28.200;112.870;2023-04-25T01:35:27;17.20;68.60
41953;DHT22;63613;28.200;112.870;2023-04-25T01:37:54;17.30;68.60
41953;DHT22;63613;28.200;112.870;2023-04-25T01:40:24;17.20;68.70
41953;DHT22;63613;28.200;112.870;2023-04-25T01:42:51;17.20;68.70
41953;DHT22;63613;28.200;112.870;2023-04-25T01:45:18;17.20;68.70
41953;DHT22;63613;28.200;112.870;2023-04-25T01:47:45;17.20;68.70
41953;DHT22;63613;28.200;112.870;2023-04-25T01:50:19;17.30;68.60
41953;DHT22;63613;28.200;112.870;2023-04-25T01:52:46;17.20;68.70
41953;DHT22;63613;28.200;112.870;2023-04-25T01:55:13;17.20;68.70
41953;DHT22;63613;28.200;112.870;2023-04-25T01:57:40;17.20;68.70
41953;DHT22;63613;28.200;112.870;2023-04-25T02:00:08;17.20;68.70
41953;DHT22;63613;28.200;112.870;2023-04-25T02:02:36;17.20;68.70
41953;DHT22;63613;28.200;112.870;2023-04-25T02:05:03;17.20;68.70
41953;DHT22;63613;28.200;112.870;2023-04-25T02:07:30;17.20;68.80
41953;DHT22;63613;28.200;112.870;2023-04-25T02:09:56;17.20;68.80
41953;DHT22;63613;28.200;112.870;2023-04-25T02:12:23;17.30;68.80
41953;DHT22;63613;28.200;112.870;2023-04-25T02:14:52;17.30;68.90
41953;DHT22;63613;28.200;112.870;2023-04-25T02:17:23;17.20;69.00
41953;DHT22;63613;28.200;112.870;2023-04-25T02:19:50;17.30;69.00
41953;DHT22;63613;28.200;112.870;2023-04-25T02:22:17;17.30;69.00
41953;DHT22;63613;28.200;112.870;2023-04-25T02:24:44;17.30;69.10
41953;DHT22;63613;28.200;112.870;2023-04-25T02:27:10;17.30;69.00
41953;DHT22;63613;28.200;112.870;2023-04-25T02:29:38;17.30;69.00
41953;DHT22;63613;28.200;112.870;2023-04-25T02:32:05;17.30;69.00
41953;DHT22;63613;28.200;112.870;2023-04-25T02:34:32;17.30;69.10
41953;DHT22;63613;28.200;112.870;2023-04-25T02:36:58;17.30;69.10
41953;DHT22;63613;28.200;112.870;2023-04-25T02:39:25;17.40;69.10
41953;DHT22;63613;28.200;112.870;2023-04-25T02:41:53;17.30;69.10
41953;DHT22;63613;28.200;112.870;2023-04-25T02:44:22;17.30;69.10
41953;DHT22;63613;28.200;112.870;2023-04-25T02:46:49;17.30;69.20
41953;DHT22;63613;28.200;112.870;2023-04-25T02:49:16;17.40;69.10
41953;DHT22;63613;28.200;112.870;2023-04-25T02:51:42;17.40;69.10
41953;DHT22;63613;28.200;112.870;2023-04-25T02:54:09;17.40;69.10
41953;DHT22;63613;28.200;112.870;2023-04-25T02:56:36;17.40;69.10
41953;DHT22;63613;28.200;112.870;2023-04-25T02:59:03;17.40;69.00
41953;DHT22;63613;28.200;112.870;2023-04-25T03:01:31;17.40;69.00
41953;DHT22;63613;28.200;112.870;2023-04-25T03:03:59;17.50;69.00
41953;DHT22;63613;28.200;112.870;2023-04-25T03:06:26;17.40;68.90
41953;DHT22;63613;28.200;112.870;2023-04-25T03:08:53;17.50;68.90
41953;DHT22;63613;28.200;112.870;2023-04-25T03:11:19;17.50;68.50
41953;DHT22;63613;28.200;112.870;2023-04-25T03:13:46;17.50;68.20
41953;DHT22;63613;28.200;112.870;2023-04-25T03:16:13;17.50;68.00
41953;DHT22;63613;28.200;112.870;2023-04-25T03:18:40;17.50;67.90
41953;DHT22;63613;28.200;112.870;2023-04-25T03:21:07;17.50;67.60
41953;DHT22;63613;28.200;112.870;2023-04-25T03:23:37;17.50;67.50
41953;DHT22;63613;28.200;112.870;2023-04-25T03:26:24;17.60;67.60
41953;DHT22;63613;28.200;112.870;2023-04-25T03:28:51;17.50;68.00
41953;DHT22;63613;28.200;112.870;2023-04-25T03:31:18;17.50;68.20
41953;DHT22;63613;28.200;112.870;2023-04-25T03:33:44;17.60;68.40
41953;DHT22;63613;28.200;112.870;2023-04-25T03:36:11;17.60;68.40
41953;DHT22;63613;28.200;112.870;2023-04-25T03:38:58;17.70;68.50
41953;DHT22;63613;28.200;112.870;2023-04-25T03:41:25;17.70;68.70
41953;DHT22;63613;28.200;112.870;2023-04-25T03:43:52;17.60;68.90
41953;DHT22;63613;28.200;112.870;2023-04-25T03:46:19;17.70;69.10
41953;DHT22;63613;28.200;112.870;2023-04-25T03:48:45;17.70;69.40
41953;DHT22;63613;28.200;112.870;2023-04-25T03:51:12;17.70;69.60
41953;DHT22;63613;28.200;112.870;2023-04-25T03:53:39;17.70;69.70
41953;DHT22;63613;28.200;112.870;2023-04-25T03:56:06;17.70;69.80
41953;DHT22;63613;28.200;112.870;2023-04-25T03:58:33;17.70;69.80
41953;DHT22;63613;28.200;112.870;2023-04-25T04:01:00;17.70;69.70
41953;DHT22;63613;28.200;112.870;2023-04-25T04:03:29;17.70;70.10
41953;DHT22;63613;28.200;112.870;2023-04-25T04:05:58;17.70;70.10
41953;DHT22;63613;28.200;112.870;2023-04-25T04:08:26;17.80;70.30
41953;DHT22;63613;28.200;112.870;2023-04-25T04:10:53;17.80;70.40
41953;DHT22;63613;28.200;112.870;2023-04-25T04:13:19;17.80;70.90
41953;DHT22;63613;28.200;112.870;2023-04-25T04:15:46;17.80;71.00
41953;DHT22;63613;28.200;112.870;2023-04-25T04:18:13;17.80;71.00
41953;DHT22;63613;28.200;112.870;2023-04-25T04:20:40;17.80;70.80
41953;DHT22;63613;28.200;112.870;2023-04-25T04:23:07;17.80;70.50
41953;DHT22;63613;28.200;112.870;2023-04-25T04:25:33;17.80;70.70
41953;DHT22;63613;28.200;112.870;2023-04-25T04:28:02;17.90;71.30
41953;DHT22;63613;28.200;112.870;2023-04-25T04:30:29;17.80;71.30
41953;DHT22;63613;28.200;112.870;2023-04-25T04:32:57;17.90;71.20
41953;DHT22;63613;28.200;112.870;2023-04-25T04:35:24;17.90;71.10
41953;DHT22;63613;28.200;112.870;2023-04-25T04:37:51;18.00;71.00
41953;DHT22;63613;28.200;112.870;2023-04-25T04:40:18;18.00;71.20
41953;DHT22;63613;28.200;112.870;2023-04-25T04:42:45;18.00;71.40
41953;DHT22;63613;28.200;112.870;2023-04-25T04:45:12;18.00;71.40
41953;DHT22;63613;28.200;112.870;2023-04-25T04:47:39;18.00;70.90
41953;DHT22;63613;28.200;112.870;2023-04-25T04:50:10;18.00;70.60
41953;DHT22;63613;28.200;112.870;2023-04-25T04:52:38;18.00;70.60
41953;DHT22;63613;28.200;112.870;2023-04-25T04:55:24;18.00;71.00
41953;DHT22;63613;28.200;112.870;2023-04-25T04:57:52;18.10;70.90
41953;DHT22;63613;28.200;112.870;2023-04-25T05:00:19;18.10;70.90
41953;DHT22;63613;28.200;112.870;2023-04-25T05:02:46;18.10;71.30
41953;DHT22;63613;28.200;112.870;2023-04-25T05:05:13;18.20;71.80
41953;DHT22;63613;28.200;112.870;2023-04-25T05:07:40;18.20;72.40
41953;DHT22;63613;28.200;112.870;2023-04-25T05:10:28;18.20;72.50
41953;DHT22;63613;28.200;112.870;2023-04-25T05:12:55;18.20;72.70
41953;DHT22;63613;28.200;112.870;2023-04-25T05:15:22;18.10;72.50
41953;DHT22;63613;28.200;112.870;2023-04-25T05:17:50;18.10;72.60
41953;DHT22;63613;28.200;112.870;2023-04-25T05:20:16;18.20;72.70
41953;DHT22;63613;28.200;112.870;2023-04-25T05:22:46;18.20;72.60
41953;DHT22;63613;28.200;112.870;2023-04-25T05:25:13;18.20;72.60
41953;DHT22;63613;28.200;112.870;2023-04-25T05:27:45;18.30;72.50
41953;DHT22;63613;28.200;112.870;2023-04-25T05:30:12;18.30;72.40
41953;DHT22;63613;28.200;112.870;2023-04-25T05:32:39;18.30;72.50
41953;DHT22;63613;28.200;112.870;2023-04-25T05:35:06;18.30;72.60
41953;DHT22;63613;28.200;112.870;2023-04-25T05:37:33;18.30;72.60
41953;DHT22;63613;28.200;112.870;2023-04-25T05:40:00;18.30;72.60
41953;DHT22;63613;28.200;112.870;2023-04-25T05:42:27;18.40;72.50
41953;DHT22;63613;28.200;112.870;2023-04-25T05:45:16;18.50;72.60
41953;DHT22;63613;28.200;112.870;2023-04-25T05:47:47;18.50;72.50
41953;DHT22;63613;28.200;112.870;2023-04-25T05:50:13;18.50;72.40
41953;DHT22;63613;28.200;112.870;2023-04-25T05:52:42;18.50;72.20
41953;DHT22;63613;28.200;112.870;2023-04-25T05:55:10;18.50;72.10
41953;DHT22;63613;28.200;112.870;2023-04-25T05:57:36;18.50;72.00
41953;DHT22;63613;28.200;112.870;2023-04-25T06:00:05;18.50;72.00
41953;DHT22;63613;28.200;112.870;2023-04-25T06:02:35;18.50;71.90
41953;DHT22;63613;28.200;112.870;2023-04-25T06:05:02;18.50;71.80
41953;DHT22;63613;28.200;112.870;2023-04-25T06:07:31;18.50;71.70
41953;DHT22;63613;28.200;112.870;2023-04-25T06:10:01;18.50;71.60
41953;DHT22;63613;28.200;112.870;2023-04-25T06:12:32;18.50;71.50
41953;DHT22;63613;28.200;112.870;2023-04-25T06:15:00;18.50;71.40
41953;DHT22;63613;28.200;112.870;2023-04-25T06:17:27;18.50;71.30
41953;DHT22;63613;28.200;112.870;2023-04-25T06:19:53;18.60;71.30
41953;DHT22;63613;28.200;112.870;2023-04-25T06:22:20;18.70;71.40
41953;DHT22;63613;28.200;112.870;2023-04-25T06:24:50;18.70;71.30
41953;DHT22;63613;28.200;112.870;2023-04-25T06:27:17;18.70;71.10
41953;DHT22;63613;28.200;112.870;2023-04-25T06:29:44;18.80;71.00
41953;DHT22;63613;28.200;112.870;2023-04-25T06:32:12;18.70;70.90
41953;DHT22;63613;28.200;112.870;2023-04-25T06:34:38;18.80;70.90
41953;DHT22;63613;28.200;112.870;2023-04-25T06:37:05;18.80;70.80
41953;DHT22;63613;28.200;112.870;2023-04-25T06:39:34;18.80;70.80
41953;DHT22;63613;28.200;112.870;2023-04-25T06:42:02;18.80;70.70
41953;DHT22;63613;28.200;112.870;2023-04-25T06:44:28;18.80;70.60
41953;DHT22;63613;28.200;112.870;2023-04-25T06:47:18;18.80;70.50
41953;DHT22;63613;28.200;112.870;2023-04-25T06:49:48;18.80;70.30
41953;DHT22;63613;28.200;112.870;2023-04-25T06:52:14;18.80;70.30
41953;DHT22;63613;28.200;112.870;2023-04-25T06:54:41;18.90;70.20
41953;DHT22;63613;28.200;112.870;2023-04-25T06:57:08;18.90;69.90
41953;DHT22;63613;28.200;112.870;2023-04-25T06:59:37;18.90;69.80
41953;DHT22;63613;28.200;112.870;2023-04-25T07:02:03;18.90;69.70
41953;DHT22;63613;28.200;112.870;2023-04-25T07:04:30;18.90;69.70
41953;DHT22;63613;28.200;112.870;2023-04-25T07:06:59;18.90;69.60
41953;DHT22;63613;28.200;112.870;2023-04-25T07:09:33;18.90;69.60
41953;DHT22;63613;28.200;112.870;2023-04-25T07:12:00;18.90;69.60
41953;DHT22;63613;28.200;112.870;2023-04-25T07:14:30;18.90;69.50
41953;DHT22;63613;28.200;112.870;2023-04-25T07:16:56;19.00;69.40
41953;DHT22;63613;28.200;112.870;2023-04-25T07:19:24;19.00;69.30
41953;DHT22;63613;28.200;112.870;2023-04-25T07:21:53;19.10;69.20
41953;DHT22;63613;28.200;112.870;2023-04-25T07:24:20;19.10;69.10
41953;DHT22;63613;28.200;112.870;2023-04-25T07:26:47;19.00;69.00
41953;DHT22;63613;28.200;112.870;2023-04-25T07:29:14;19.10;68.90
41953;DHT22;63613;28.200;112.870;2023-04-25T07:31:40;19.10;68.90
41953;DHT22;63613;28.200;112.870;2023-04-25T07:36:56;19.00;68.70
41953;DHT22;63613;28.200;112.870;2023-04-25T07:39:24;19.00;68.60
41953;DHT22;63613;28.200;112.870;2023-04-25T07:41:50;19.00;68.60
41953;DHT22;63613;28.200;112.870;2023-04-25T07:44:17;19.00;68.50
41953;DHT22;63613;28.200;112.870;2023-04-25T07:47:05;19.00;68.50
41953;DHT22;63613;28.200;112.870;2023-04-25T07:49:38;19.00;68.50
41953;DHT22;63613;28.200;112.870;2023-04-25T07:52:07;19.00;68.40
41953;DHT22;63613;28.200;112.870;2023-04-25T07:54:34;19.00;68.40
41953;DHT22;63613;28.200;112.870;2023-04-25T07:57:01;19.00;68.30
41953;DHT22;63613;28.200;112.870;2023-04-25T07:59:28;19.00;68.30
41953;DHT22;63613;28.200;112.870;2023-04-25T08:01:58;19.00;68.20
41953;DHT22;63613;28.200;112.870;2023-04-25T08:04:28;18.90;68.20
41953;DHT22;63613;28.200;112.870;2023-04-25T08:06:55;19.00;68.10
41953;DHT22;63613;28.200;112.870;2023-04-25T08:09:23;18.90;68.00
41953;DHT22;63613;28.200;112.870;2023-04-25T08:11:50;18.90;67.90
41953;DHT22;63613;28.200;112.870;2023-04-25T08:14:17;18.90;67.90
41953;DHT22;63613;28.200;112.870;2023-04-25T08:16:44;18.80;67.90
41953;DHT22;63613;28.200;112.870;2023-04-25T08:19:11;18.90;67.80
41953;DHT22;63613;28.200;112.870;2023-04-25T08:21:38;18.90;67.70
41953;DHT22;63613;28.200;112.870;2023-04-25T08:24:05;18.80;67.80
41953;DHT22;63613;28.200;112.870;2023-04-25T08:26:31;18.80;67.80
41953;DHT22;63613;28.200;112.870;2023-04-25T08:28:59;18.80;67.70
41953;DHT22;63613;28.200;112.870;2023-04-25T08:31:26;18.80;67.60
41953;DHT22;63613;28.200;112.870;2023-04-25T08:33:53;18.80;67.60
41953;DHT22;63613;28.200;112.870;2023-04-25T08:36:20;18.80;67.70
41953;DHT22;63613;28.200;112.870;2023-04-25T08:38:47;18.80;67.60
41953;DHT22;63613;28.200;112.870;2023-04-25T08:41:18;18.80;67.60
41953;DHT22;63613;28.200;112.870;2023-04-25T08:43:49;18.70;67.60
41953;DHT22;63613;28.200;112.870;2023-04-25T08:46:18;18.70;67.60
41953;DHT22;63613;28.200;112.870;2023-04-25T08:48:46;18.70;67.60
41953;DHT22;63613;28.200;112.870;2023-04-25T08:51:23;18.70;67.60
41953;DHT22;63613;28.200;112.870;2023-04-25T08:53:52;18.70;67.40
41953;DHT22;63613;28.200;112.870;2023-04-25T08:56:19;18.70;67.50
41953;DHT22;63613;28.200;112.870;2023-04-25T08:58:49;18.70;67.50
41953;DHT22;63613;28.200;112.870;2023-04-25T09:01:19;18.70;67.40
41953;DHT22;63613;28.200;112.870;2023-04-25T09:03:46;18.70;67.50
41953;DHT22;63613;28.200;112.870;2023-04-25T09:06:13;18.70;67.40
41953;DHT22;63613;28.200;112.870;2023-04-25T09:08:42;18.60;67.40
41953;DHT22;63613;28.200;112.870;2023-04-25T09:11:09;18.70;67.30
41953;DHT22;63613;28.200;112.870;2023-04-25T09:13:35;18.70;67.30
41953;DHT22;63613;28.200;112.870;2023-04-25T09:16:02;18.70;67.30
41953;DHT22;63613;28.200;112.870;2023-04-25T09:18:31;18.70;67.20
41953;DHT22;63613;28.200;112.870;2023-04-25T09:21:09;18.70;67.10
41953;DHT22;63613;28.200;112.870;2023-04-25T09:23:47;18.70;67.10
41953;DHT22;63613;28.200;112.870;2023-04-25T09:26:21;18.70;67.20
41953;DHT22;63613;28.200;112.870;2023-04-25T09:28:48;18.70;67.20
41953;DHT22;63613;28.200;112.870;2023-04-25T09:31:35;18.70;67.20
41953;DHT22;63613;28.200;112.870;2023-04-25T09:34:02;18.70;67.00
41953;DHT22;63613;28.200;112.870;2023-04-25T09:36:30;18.60;66.90
41953;DHT22;63613;28.200;112.870;2023-04-25T09:38:59;18.70;66.80
41953;DHT22;63613;28.200;112.870;2023-04-25T09:41:27;18.60;66.90
41953;DHT22;63613;28.200;112.870;2023-04-25T09:44:14;18.60;66.90
41953;DHT22;63613;28.200;112.870;2023-04-25T09:46:40;18.60;66.90
41953;DHT22;63613;28.200;112.870;2023-04-25T09:49:08;18.60;67.10
41953;DHT22;63613;28.200;112.870;2023-04-25T09:51:35;18.60;66.90
41953;DHT22;63613;28.200;112.870;2023-04-25T09:54:02;18.60;66.80
41953;DHT22;63613;28.200;112.870;2023-04-25T09:56:31;18.70;66.60
41953;DHT22;63613;28.200;112.870;2023-04-25T09:59:00;18.70;66.50
41953;DHT22;63613;28.200;112.870;2023-04-25T10:01:30;18.70;66.30
41953;DHT22;63613;28.200;112.870;2023-04-25T10:03:58;18.70;66.20
41953;DHT22;63613;28.200;112.870;2023-04-25T10:06:26;18.60;66.20
41953;DHT22;63613;28.200;112.870;2023-04-25T10:08:54;18.70;66.20
41953;DHT22;63613;28.200;112.870;2023-04-25T10:11:23;18.60;66.10
41953;DHT22;63613;28.200;112.870;2023-04-25T10:13:51;18.70;66.10
41953;DHT22;63613;28.200;112.870;2023-04-25T10:16:19;18.70;66.10
41953;DHT22;63613;28.200;112.870;2023-04-25T10:18:46;18.60;66.20
41953;DHT22;63613;28.200;112.870;2023-04-25T10:21:13;18.60;66.20
41953;DHT22;63613;28.200;112.870;2023-04-25T10:23:41;18.60;66.30
41953;DHT22;63613;28.200;112.870;2023-04-25T10:26:28;18.60;66.30
41953;DHT22;63613;28.200;112.870;2023-04-25T10:28:56;18.60;66.30
41953;DHT22;63613;28.200;112.870;2023-04-25T10:31:24;18.50;66.30
41953;DHT22;63613;28.200;112.870;2023-04-25T10:33:52;18.50;66.30
41953;DHT22;63613;28.200;112.870;2023-04-25T10:36:22;18.50;66.30
41953;DHT22;63613;28.200;112.870;2023-04-25T10:38:52;18.50;66.30
41953;DHT22;63613;28.200;112.870;2023-04-25T10:41:20;18.40;66.20
41953;DHT22;63613;28.200;112.870;2023-04-25T10:43:59;18.40;66.20
41953;DHT22;63613;28.200;112.870;2023-04-25T10:46:30;18.40;66.00
41953;DHT22;63613;28.200;112.870;2023-04-25T10:49:02;18.40;65.90
41953;DHT22;63613;28.200;112.870;2023-04-25T10:51:33;18.40;66.00
41953;DHT22;63613;28.200;112.870;2023-04-25T10:54:05;18.30;66.00
41953;DHT22;63613;28.200;112.870;2023-04-25T10:59:12;18.30;66.00
41953;DHT22;63613;28.200;112.870;2023-04-25T11:01:44;18.30;66.00
41953;DHT22;63613;28.200;112.870;2023-04-25T11:04:30;18.30;66.00
41953;DHT22;63613;28.200;112.870;2023-04-25T11:09:39;18.30;65.70
41953;DHT22;63613;28.200;112.870;2023-04-25T11:12:08;18.40;65.50
41953;DHT22;63613;28.200;112.870;2023-04-25T11:14:36;18.40;65.40
41953;DHT22;63613;28.200;112.870;2023-04-25T11:17:03;18.30;65.20
41953;DHT22;63613;28.200;112.870;2023-04-25T11:19:30;18.30;65.10
41953;DHT22;63613;28.200;112.870;2023-04-25T11:21:58;18.30;65.00
41953;DHT22;63613;28.200;112.870;2023-04-25T11:24:35;18.30;64.90
41953;DHT22;63613;28.200;112.870;2023-04-25T11:27:05;18.30;64.80
41953;DHT22;63613;28.200;112.870;2023-04-25T11:29:33;18.30;64.70
41953;DHT22;63613;28.200;112.870;2023-04-25T11:32:00;18.30;64.70
41953;DHT22;63613;28.200;112.870;2023-04-25T11:34:29;18.30;64.70
41953;DHT22;63613;28.200;112.870;2023-04-25T11:37:00;18.20;64.70
41953;DHT22;63613;28.200;112.870;2023-04-25T11:39:28;18.30;64.70
41953;DHT22;63613;28.200;112.870;2023-04-25T11:41:55;18.30;64.60
41953;DHT22;63613;28.200;112.870;2023-04-25T11:44:23;18.20;64.60
41953;DHT22;63613;28.200;112.870;2023-04-25T11:46:49;18.30;64.60
41953;DHT22;63613;28.200;112.870;2023-04-25T11:49:18;18.20;64.60
41953;DHT22;63613;28.200;112.870;2023-04-25T11:51:46;18.20;64.60
41953;DHT22;63613;28.200;112.870;2023-04-25T11:54:17;18.20;64.60
41953;DHT22;63613;28.200;112.870;2023-04-25T11:56:45;18.20;64.50
41953;DHT22;63613;28.200;112.870;2023-04-25T11:59:12;18.10;64.60
41953;DHT22;63613;28.200;112.870;2023-04-25T12:01:41;18.10;64.60
41953;DHT22;63613;28.200;112.870;2023-04-25T12:04:17;18.10;64.60
41953;DHT22;63613;28.200;112.870;2023-04-25T12:06:46;18.10;64.50
41953;DHT22;63613;28.200;112.870;2023-04-25T12:09:19;18.00;64.50
41953;DHT22;63613;28.200;112.870;2023-04-25T12:11:57;18.00;64.50
41953;DHT22;63613;28.200;112.870;2023-04-25T12:14:29;18.00;64.50
41953;DHT22;63613;28.200;112.870;2023-04-25T12:16:58;18.00;64.50
41953;DHT22;63613;28.200;112.870;2023-04-25T12:19:26;18.00;64.60
41953;DHT22;63613;28.200;112.870;2023-04-25T12:22:01;18.00;64.60
41953;DHT22;63613;28.200;112.870;2023-04-25T12:24:29;17.90;64.70
41953;DHT22;63613;28.200;112.870;2023-04-25T12:27:06;18.00;64.70
41953;DHT22;63613;28.200;112.870;2023-04-25T12:29:36;18.00;64.60
41953;DHT22;63613;28.200;112.870;2023-04-25T12:32:03;17.90;64.70
41953;DHT22;63613;28.200;112.870;2023-04-25T12:34:31;17.90;64.80
41953;DHT22;63613;28.200;112.870;2023-04-25T12:37:00;17.90;64.90
41953;DHT22;63613;28.200;112.870;2023-04-25T12:39:29;17.90;64.90
41953;DHT22;63613;28.200;112.870;2023-04-25T12:41:56;17.90;65.00
41953;DHT22;63613;28.200;112.870;2023-04-25T12:44:23;17.90;65.10
41953;DHT22;63613;28.200;112.870;2023-04-25T12:46:50;17.90;65.20
41953;DHT22;63613;28.200;112.870;2023-04-25T12:49:17;17.90;65.30
41953;DHT22;63613;28.200;112.870;2023-04-25T12:51:44;17.90;65.40
41953;DHT22;63613;28.200;112.870;2023-04-25T12:54:11;17.90;65.50
41953;DHT22;63613;28.200;112.870;2023-04-25T12:56:37;17.80;65.60
41953;DHT22;63613;28.200;112.870;2023-04-25T12:59:04;17.90;65.70
41953;DHT22;63613;28.200;112.870;2023-04-25T13:01:31;17.80;65.70
41953;DHT22;63613;28.200;112.870;2023-04-25T13:04:20;17.90;65.70
41953;DHT22;63613;28.200;112.870;2023-04-25T13:06:47;17.80;65.80
41953;DHT22;63613;28.200;112.870;2023-04-25T13:09:34;17.80;65.90
41953;DHT22;63613;28.200;112.870;2023-04-25T13:12:01;17.80;66.00
41953;DHT22;63613;28.200;112.870;2023-04-25T13:14:28;17.80;66.00
41953;DHT22;63613;28.200;112.870;2023-04-25T13:17:15;17.80;66.10
41953;DHT22;63613;28.200;112.870;2023-04-25T13:19:43;17.80;66.20
41953;DHT22;63613;28.200;112.870;2023-04-25T13:22:22;17.80;66.20
41953;DHT22;63613;28.200;112.870;2023-04-25T13:24:49;17.80;66.20
41953;DHT22;63613;28.200;112.870;2023-04-25T13:27:16;17.80;66.30
41953;DHT22;63613;28.200;112.870;2023-04-25T13:29:43;17.80;66.20
41953;DHT22;63613;28.200;112.870;2023-04-25T13:32:13;17.80;66.30
41953;DHT22;63613;28.200;112.870;2023-04-25T13:34:40;17.80;66.30
41953;DHT22;63613;28.200;112.870;2023-04-25T13:37:07;17.80;66.30
41953;DHT22;63613;28.200;112.870;2023-04-25T13:39:35;17.80;66.30
41953;DHT22;63613;28.200;112.870;2023-04-25T13:42:21;17.80;66.30
41953;DHT22;63613;28.200;112.870;2023-04-25T13:44:47;17.80;66.40
41953;DHT22;63613;28.200;112.870;2023-04-25T13:47:14;17.80;66.40
41953;DHT22;63613;28.200;112.870;2023-04-25T13:49:43;17.80;66.40
41953;DHT22;63613;28.200;112.870;2023-04-25T13:52:10;17.80;66.50
41953;DHT22;63613;28.200;112.870;2023-04-25T13:54:42;17.80;66.50
41953;DHT22;63613;28.200;112.870;2023-04-25T13:57:30;17.80;66.50
41953;DHT22;63613;28.200;112.870;2023-04-25T13:59:57;17.80;66.50
41953;DHT22;63613;28.200;112.870;2023-04-25T14:02:24;17.80;66.50
41953;DHT22;63613;28.200;112.870;2023-04-25T14:04:51;17.80;66.50
41953;DHT22;63613;28.200;112.870;2023-04-25T14:07:18;17.80;66.50
41953;DHT22;63613;28.200;112.870;2023-04-25T14:09:47;17.80;66.60
41953;DHT22;63613;28.200;112.870;2023-04-25T14:12:28;17.80;66.60
41953;DHT22;63613;28.200;112.870;2023-04-25T14:14:55;17.70;66.60
41953;DHT22;63613;28.200;112.870;2023-04-25T14:17:23;17.70;66.70
41953;DHT22;63613;28.200;112.870;2023-04-25T14:19:50;17.80;66.70
41953;DHT22;63613;28.200;112.870;2023-04-25T14:22:17;17.70;66.70
41953;DHT22;63613;28.200;112.870;2023-04-25T14:24:45;17.70;66.70
41953;DHT22;63613;28.200;112.870;2023-04-25T14:27:12;17.70;66.70
41953;DHT22;63613;28.200;112.870;2023-04-25T14:29:40;17.70;66.80
41953;DHT22;63613;28.200;112.870;2023-04-25T14:32:07;17.60;66.80
41953;DHT22;63613;28.200;112.870;2023-04-25T14:34:59;17.70;66.90
41953;DHT22;63613;28.200;112.870;2023-04-25T14:37:26;17.70;66.90
41953;DHT22;63613;28.200;112.870;2023-04-25T14:39:52;17.70;66.90
41953;DHT22;63613;28.200;112.870;2023-04-25T14:42:20;17.70;66.90
41953;DHT22;63613;28.200;112.870;2023-04-25T14:44:47;17.70;66.90
41953;DHT22;63613;28.200;112.870;2023-04-25T14:47:15;17.60;67.00
41953;DHT22;63613;28.200;112.870;2023-04-25T14:49:42;17.60;67.00
41953;DHT22;63613;28.200;112.870;2023-04-25T14:52:09;17.60;67.00
41953;DHT22;63613;28.200;112.870;2023-04-25T14:54:35;17.60;67.00
41953;DHT22;63613;28.200;112.870;2023-04-25T14:57:03;17.60;67.10
41953;DHT22;63613;28.200;112.870;2023-04-25T14:59:31;17.60;67.20
41953;DHT22;63613;28.200;112.870;2023-04-25T15:01:58;17.60;67.20
41953;DHT22;63613;28.200;112.870;2023-04-25T15:04:46;17.60;67.10
41953;DHT22;63613;28.200;112.870;2023-04-25T15:07:14;17.60;67.10
41953;DHT22;63613;28.200;112.870;2023-04-25T15:09:41;17.60;67.20
41953;DHT22;63613;28.200;112.870;2023-04-25T15:12:08;17.60;67.30
41953;DHT22;63613;28.200;112.870;2023-04-25T15:14:55;17.60;67.20
41953;DHT22;63613;28.200;112.870;2023-04-25T15:17:21;17.60;67.30
41953;DHT22;63613;28.200;112.870;2023-04-25T15:19:52;17.60;67.30
41953;DHT22;63613;28.200;112.870;2023-04-25T15:22:20;17.60;67.30